createdAt,value
2019-02-02T00:00:02.954Z,986.87
2019-02-02T00:00:29.051Z,986.86
2019-02-02T00:00:55.157Z,986.89
2019-02-02T00:01:21.292Z,986.91
2019-02-02T00:01:47.414Z,986.83
2019-02-02T00:02:13.518Z,986.88
2019-02-02T00:02:39.623Z,986.85
2019-02-02T00:03:05.755Z,986.85
2019-02-02T00:03:31.861Z,986.81
2019-02-02T00:03:57.972Z,986.82
2019-02-02T00:04:24.086Z,986.8
2019-02-02T00:04:50.178Z,986.79
2019-02-02T00:05:16.288Z,986.77
2019-02-02T00:05:42.481Z,986.81
2019-02-02T00:06:08.581Z,986.8
2019-02-02T00:06:34.679Z,986.78
2019-02-02T00:07:00.786Z,986.81
2019-02-02T00:07:26.891Z,986.78
2019-02-02T00:07:53.030Z,986.78
2019-02-02T00:08:19.131Z,986.8
2019-02-02T00:08:45.238Z,986.77
2019-02-02T00:09:11.334Z,986.81
2019-02-02T00:09:37.502Z,986.82
2019-02-02T00:10:03.603Z,986.83
2019-02-02T00:10:29.714Z,986.82
2019-02-02T00:10:55.819Z,986.83
2019-02-02T00:11:21.979Z,986.82
2019-02-02T00:11:48.091Z,986.77
2019-02-02T00:12:14.225Z,986.8
2019-02-02T00:12:40.451Z,986.86
2019-02-02T00:13:06.558Z,986.85
2019-02-02T00:13:32.670Z,986.84
2019-02-02T00:13:58.769Z,986.84
2019-02-02T00:14:24.875Z,986.85
2019-02-02T00:14:51.009Z,986.87
2019-02-02T00:15:17.115Z,986.88
2019-02-02T00:15:43.311Z,986.85
2019-02-02T00:16:09.410Z,986.82
2019-02-02T00:16:35.514Z,986.8
2019-02-02T00:17:01.625Z,986.78
2019-02-02T00:17:27.727Z,986.8
2019-02-02T00:17:53.836Z,986.77
2019-02-02T00:18:19.962Z,986.75
2019-02-02T00:18:46.066Z,986.75
2019-02-02T00:19:12.167Z,986.77
2019-02-02T00:19:38.278Z,986.74
2019-02-02T00:20:05.381Z,986.76
2019-02-02T00:20:31.546Z,986.74
2019-02-02T00:20:57.651Z,986.7
2019-02-02T00:21:23.752Z,986.71
2019-02-02T00:21:49.901Z,986.7
2019-02-02T00:22:16.005Z,986.72
2019-02-02T00:22:42.112Z,986.66
2019-02-02T00:23:08.213Z,986.62
2019-02-02T00:23:34.318Z,986.63
2019-02-02T00:24:00.426Z,986.64
2019-02-02T00:24:26.533Z,986.6
2019-02-02T00:24:52.635Z,986.58
2019-02-02T00:25:18.788Z,986.58
2019-02-02T00:25:44.892Z,986.58
2019-02-02T00:26:11.001Z,986.6
2019-02-02T00:26:37.131Z,986.59
2019-02-02T00:27:03.236Z,986.58
2019-02-02T00:27:40.763Z,986.61
2019-02-02T00:27:56.488Z,986.55
2019-02-02T00:28:22.625Z,986.56
2019-02-02T00:28:48.724Z,986.59
2019-02-02T00:29:14.857Z,986.59
2019-02-02T00:29:40.961Z,986.62
2019-02-02T00:30:07.064Z,986.61
2019-02-02T00:30:33.173Z,986.66
2019-02-02T00:30:59.360Z,986.63
2019-02-02T00:31:25.468Z,986.64
2019-02-02T00:31:51.568Z,986.69
2019-02-02T00:32:17.676Z,986.65
2019-02-02T00:32:43.804Z,986.68
2019-02-02T00:33:09.908Z,986.68
2019-02-02T00:33:36.046Z,986.69
2019-02-02T00:34:02.139Z,986.7
2019-02-02T00:34:28.283Z,986.71
2019-02-02T00:34:54.383Z,986.71
2019-02-02T00:35:20.486Z,986.71
2019-02-02T00:35:46.591Z,986.71
2019-02-02T00:36:12.700Z,986.7
2019-02-02T00:36:38.803Z,986.7
2019-02-02T00:37:04.904Z,986.72
2019-02-02T00:37:31.035Z,986.72
2019-02-02T00:37:57.146Z,986.72
2019-02-02T00:38:23.284Z,986.72
2019-02-02T00:38:49.398Z,986.72
2019-02-02T00:39:15.499Z,986.73
2019-02-02T00:39:41.606Z,986.74
2019-02-02T00:40:07.704Z,986.73
2019-02-02T00:40:33.807Z,986.72
2019-02-02T00:40:59.962Z,986.71
2019-02-02T00:41:26.087Z,986.69
2019-02-02T00:41:52.194Z,986.69
2019-02-02T00:42:18.383Z,986.73
2019-02-02T00:42:44.513Z,986.72
2019-02-02T00:43:10.640Z,986.7
2019-02-02T00:43:38.459Z,986.7
2019-02-02T00:44:02.914Z,986.72
2019-02-02T00:44:29.019Z,986.68
2019-02-02T00:44:55.149Z,986.71
2019-02-02T00:45:21.316Z,986.66
2019-02-02T00:45:47.420Z,986.67
2019-02-02T00:46:13.530Z,986.63
2019-02-02T00:46:39.630Z,986.67
2019-02-02T00:47:05.809Z,986.65
2019-02-02T00:47:31.910Z,986.68
2019-02-02T00:47:58.045Z,986.66
2019-02-02T00:48:24.145Z,986.68
2019-02-02T00:48:50.250Z,986.67
2019-02-02T00:49:16.508Z,986.7
2019-02-02T00:49:42.513Z,986.7
2019-02-02T00:50:08.688Z,986.73
2019-02-02T00:50:34.787Z,986.73
2019-02-02T00:51:00.886Z,986.68
2019-02-02T00:51:26.996Z,986.72
2019-02-02T00:51:53.133Z,986.73
2019-02-02T00:52:19.269Z,986.73
2019-02-02T00:52:45.411Z,986.72
2019-02-02T00:53:11.707Z,986.74
2019-02-02T00:53:37.807Z,986.75
2019-02-02T00:54:03.949Z,986.73
2019-02-02T00:54:30.073Z,986.77
2019-02-02T00:54:56.180Z,986.75
2019-02-02T00:55:22.316Z,986.75
2019-02-02T00:55:48.430Z,986.72
2019-02-02T00:56:14.566Z,986.73
2019-02-02T00:56:40.756Z,986.76
2019-02-02T00:57:06.862Z,986.7
2019-02-02T00:57:32.962Z,986.7
2019-02-02T00:58:01.047Z,986.73
2019-02-02T00:58:27.150Z,986.71
2019-02-02T00:58:53.258Z,986.7
2019-02-02T00:59:19.363Z,986.72
2019-02-02T00:59:45.497Z,986.68
2019-02-02T01:00:11.599Z,986.68
2019-02-02T01:00:37.731Z,986.66
2019-02-02T01:01:03.845Z,986.7
2019-02-02T01:01:29.999Z,986.72
2019-02-02T01:01:56.099Z,986.71
2019-02-02T01:02:22.208Z,986.75
2019-02-02T01:02:48.312Z,986.7
2019-02-02T01:03:14.421Z,986.73
2019-02-02T01:03:40.560Z,986.69
2019-02-02T01:04:06.669Z,986.72
2019-02-02T01:04:32.769Z,986.73
2019-02-02T01:04:58.881Z,986.78
2019-02-02T01:05:25.017Z,986.77
2019-02-02T01:05:51.155Z,986.75
2019-02-02T01:06:17.273Z,986.73
2019-02-02T01:06:43.378Z,986.72
2019-02-02T01:07:09.483Z,986.75
2019-02-02T01:07:35.587Z,986.74
2019-02-02T01:08:01.694Z,986.74
2019-02-02T01:08:27.805Z,986.77
2019-02-02T01:08:53.910Z,986.76
2019-02-02T01:09:20.010Z,986.76
2019-02-02T01:09:46.110Z,986.78
2019-02-02T01:10:12.265Z,986.76
2019-02-02T01:10:38.375Z,986.73
2019-02-02T01:11:04.472Z,986.78
2019-02-02T01:11:30.578Z,986.77
2019-02-02T01:11:56.679Z,986.78
2019-02-02T01:12:22.785Z,986.75
2019-02-02T01:12:48.887Z,986.75
2019-02-02T01:13:14.994Z,986.73
2019-02-02T01:13:41.101Z,986.76
2019-02-02T01:14:07.202Z,986.79
2019-02-02T01:14:33.312Z,986.77
2019-02-02T01:14:59.448Z,986.8
2019-02-02T01:15:25.554Z,986.78
2019-02-02T01:15:51.690Z,986.81
2019-02-02T01:16:17.789Z,986.83
2019-02-02T01:16:43.903Z,986.83
2019-02-02T01:17:10.035Z,986.85
2019-02-02T01:17:36.164Z,986.83
2019-02-02T01:18:02.259Z,986.85
2019-02-02T01:18:28.362Z,986.82
2019-02-02T01:18:54.468Z,986.84
2019-02-02T01:19:20.569Z,986.84
2019-02-02T01:19:46.670Z,986.86
2019-02-02T01:20:12.778Z,986.83
2019-02-02T01:20:38.914Z,986.83
2019-02-02T01:21:05.047Z,986.84
2019-02-02T01:21:31.183Z,986.85
2019-02-02T01:21:57.285Z,986.82
2019-02-02T01:22:23.387Z,986.84
2019-02-02T01:22:49.493Z,986.83
2019-02-02T01:23:15.697Z,986.84
2019-02-02T01:23:41.797Z,986.82
2019-02-02T01:24:07.902Z,986.81
2019-02-02T01:24:34.007Z,986.81
2019-02-02T01:25:00.318Z,986.81
2019-02-02T01:25:26.370Z,986.8
2019-02-02T01:25:52.467Z,986.8
2019-02-02T01:26:18.570Z,986.78
2019-02-02T01:26:44.680Z,986.78
2019-02-02T01:27:10.816Z,986.77
2019-02-02T01:27:36.945Z,986.76
2019-02-02T01:28:05.542Z,986.8
2019-02-02T01:28:31.180Z,986.77
2019-02-02T01:28:57.292Z,986.78
2019-02-02T01:29:23.389Z,986.8
2019-02-02T01:29:49.497Z,986.78
2019-02-02T01:30:15.608Z,986.8
2019-02-02T01:30:41.758Z,986.8
2019-02-02T01:31:07.863Z,986.83
2019-02-02T01:31:33.968Z,986.83
2019-02-02T01:32:00.680Z,986.8
2019-02-02T01:32:27.773Z,986.82
2019-02-02T01:32:53.874Z,986.86
2019-02-02T01:33:20.004Z,986.84
2019-02-02T01:33:46.159Z,986.78
2019-02-02T01:34:12.263Z,986.79
2019-02-02T01:34:38.364Z,986.81
2019-02-02T01:35:04.505Z,986.8
2019-02-02T01:35:30.612Z,986.79
2019-02-02T01:35:56.715Z,986.77
2019-02-02T01:36:22.827Z,986.73
2019-02-02T01:36:48.931Z,986.75
2019-02-02T01:37:15.038Z,986.77
2019-02-02T01:37:41.155Z,986.73
2019-02-02T01:38:07.246Z,986.73
2019-02-02T01:38:33.357Z,986.73
2019-02-02T01:38:59.486Z,986.69
2019-02-02T01:39:25.594Z,986.75
2019-02-02T01:39:51.694Z,986.74
2019-02-02T01:40:17.806Z,986.74
2019-02-02T01:40:43.957Z,986.71
2019-02-02T01:41:10.090Z,986.74
2019-02-02T01:41:36.223Z,986.74
2019-02-02T01:42:02.351Z,986.69
2019-02-02T01:42:28.487Z,986.72
2019-02-02T01:42:54.587Z,986.71
2019-02-02T01:43:20.692Z,986.74
2019-02-02T01:43:46.805Z,986.77
2019-02-02T01:44:12.936Z,986.76
2019-02-02T01:44:39.038Z,986.79
2019-02-02T01:45:05.164Z,986.77
2019-02-02T01:45:31.290Z,986.77
2019-02-02T01:45:57.455Z,986.73
2019-02-02T01:46:23.555Z,986.75
2019-02-02T01:46:49.658Z,986.79
2019-02-02T01:47:15.763Z,986.81
2019-02-02T01:47:41.872Z,986.77
2019-02-02T01:48:07.976Z,986.81
2019-02-02T01:48:34.113Z,986.82
2019-02-02T01:49:00.270Z,986.78
2019-02-02T01:49:26.375Z,986.82
2019-02-02T01:49:52.480Z,986.8
2019-02-02T01:50:18.588Z,986.8
2019-02-02T01:50:44.693Z,986.81
2019-02-02T01:51:10.801Z,986.8
2019-02-02T01:51:36.906Z,986.78
2019-02-02T01:52:03.008Z,986.78
2019-02-02T01:52:29.122Z,986.79
2019-02-02T01:52:55.249Z,986.76
2019-02-02T01:53:21.382Z,986.82
2019-02-02T01:53:47.484Z,986.81
2019-02-02T01:54:13.586Z,986.84
2019-02-02T01:54:39.692Z,986.82
2019-02-02T01:55:05.798Z,986.82
2019-02-02T01:55:31.915Z,986.83
2019-02-02T01:55:58.017Z,986.83
2019-02-02T01:56:24.147Z,986.85
2019-02-02T01:56:50.258Z,986.82
2019-02-02T01:57:16.361Z,986.82
2019-02-02T01:57:42.464Z,986.79
2019-02-02T01:58:16.290Z,986.83
2019-02-02T01:58:35.688Z,986.83
2019-02-02T01:59:01.792Z,986.82
2019-02-02T01:59:27.897Z,986.82
2019-02-02T01:59:54.007Z,986.83
2019-02-02T02:00:20.109Z,986.81
2019-02-02T02:00:46.212Z,986.84
2019-02-02T02:01:12.441Z,986.78
2019-02-02T02:01:41.348Z,986.76
2019-02-02T02:02:05.542Z,986.75
2019-02-02T02:02:31.678Z,986.75
2019-02-02T02:02:57.804Z,986.74
2019-02-02T02:03:23.930Z,986.75
2019-02-02T02:03:50.089Z,986.71
2019-02-02T02:04:16.190Z,986.76
2019-02-02T02:04:42.298Z,986.7
2019-02-02T02:05:08.432Z,986.72
2019-02-02T02:05:34.557Z,986.71
2019-02-02T02:06:00.665Z,986.73
2019-02-02T02:06:26.815Z,986.71
2019-02-02T02:06:52.945Z,986.73
2019-02-02T02:07:19.051Z,986.71
2019-02-02T02:07:45.151Z,986.74
2019-02-02T02:08:11.285Z,986.74
2019-02-02T02:08:37.388Z,986.73
2019-02-02T02:09:03.522Z,986.74
2019-02-02T02:09:29.626Z,986.74
2019-02-02T02:09:55.757Z,986.77
2019-02-02T02:10:21.868Z,986.74
2019-02-02T02:10:47.973Z,986.72
2019-02-02T02:11:14.083Z,986.74
2019-02-02T02:11:40.209Z,986.78
2019-02-02T02:12:06.351Z,986.75
2019-02-02T02:12:32.452Z,986.76
2019-02-02T02:12:58.555Z,986.76
2019-02-02T02:13:24.739Z,986.76
2019-02-02T02:13:50.875Z,986.74
2019-02-02T02:14:17.004Z,986.78
2019-02-02T02:14:43.143Z,986.79
2019-02-02T02:15:09.245Z,986.79
2019-02-02T02:15:35.372Z,986.81
2019-02-02T02:16:01.474Z,986.77
2019-02-02T02:16:27.580Z,986.81
2019-02-02T02:16:53.738Z,986.8
2019-02-02T02:17:19.873Z,986.82
2019-02-02T02:17:46.027Z,986.77
2019-02-02T02:18:12.132Z,986.76
2019-02-02T02:18:38.235Z,986.76
2019-02-02T02:19:04.355Z,986.72
2019-02-02T02:19:30.498Z,986.74
2019-02-02T02:19:56.634Z,986.79
2019-02-02T02:20:24.322Z,986.75
2019-02-02T02:20:49.839Z,986.75
2019-02-02T02:21:15.937Z,986.76
2019-02-02T02:21:42.045Z,986.72
2019-02-02T02:22:08.147Z,986.7
2019-02-02T02:22:41.000Z,986.7
2019-02-02T02:23:02.360Z,986.69
2019-02-02T02:23:28.470Z,986.74
2019-02-02T02:23:54.568Z,986.71
2019-02-02T02:24:20.681Z,986.7
2019-02-02T02:24:46.785Z,986.73
2019-02-02T02:25:12.883Z,986.69
2019-02-02T02:25:38.990Z,986.69
2019-02-02T02:26:05.101Z,986.7
2019-02-02T02:26:31.202Z,986.7
2019-02-02T02:26:57.307Z,986.7
2019-02-02T02:27:23.437Z,986.74
2019-02-02T02:27:49.559Z,986.68
2019-02-02T02:28:15.716Z,986.68
2019-02-02T02:28:42.819Z,986.7
2019-02-02T02:29:08.922Z,986.68
2019-02-02T02:29:35.032Z,986.67
2019-02-02T02:30:01.171Z,986.63
2019-02-02T02:30:27.327Z,986.6
2019-02-02T02:30:53.429Z,986.59
2019-02-02T02:31:19.525Z,986.58
2019-02-02T02:31:45.635Z,986.56
2019-02-02T02:32:11.777Z,986.56
2019-02-02T02:32:37.915Z,986.59
2019-02-02T02:33:04.054Z,986.55
2019-02-02T02:33:30.157Z,986.54
2019-02-02T02:33:56.273Z,986.57
2019-02-02T02:34:22.366Z,986.58
2019-02-02T02:34:48.454Z,986.56
2019-02-02T02:35:14.598Z,986.58
2019-02-02T02:35:40.753Z,986.58
2019-02-02T02:36:06.845Z,986.59
2019-02-02T02:36:32.998Z,986.6
2019-02-02T02:36:59.092Z,986.59
2019-02-02T02:37:25.200Z,986.62
2019-02-02T02:37:51.299Z,986.6
2019-02-02T02:38:17.429Z,986.67
2019-02-02T02:38:43.595Z,986.66
2019-02-02T02:39:09.695Z,986.66
2019-02-02T02:39:35.791Z,986.66
2019-02-02T02:40:01.958Z,986.65
2019-02-02T02:40:28.085Z,986.67
2019-02-02T02:40:54.240Z,986.66
2019-02-02T02:41:20.373Z,986.67
2019-02-02T02:41:46.502Z,986.68
2019-02-02T02:42:12.620Z,986.68
2019-02-02T02:42:38.743Z,986.71
2019-02-02T02:43:04.852Z,986.68
2019-02-02T02:43:31.110Z,986.73
2019-02-02T02:43:57.274Z,986.68
2019-02-02T02:44:23.459Z,986.68
2019-02-02T02:44:49.562Z,986.66
2019-02-02T02:45:15.682Z,986.7
2019-02-02T02:45:41.829Z,986.7
2019-02-02T02:46:07.926Z,986.69
2019-02-02T02:46:34.028Z,986.7
2019-02-02T02:47:00.164Z,986.72
2019-02-02T02:47:26.267Z,986.72
2019-02-02T02:47:52.390Z,986.75
2019-02-02T02:48:18.497Z,986.74
2019-02-02T02:48:44.630Z,986.78
2019-02-02T02:49:10.743Z,986.78
2019-02-02T02:49:36.850Z,986.83
2019-02-02T02:50:02.980Z,986.79
2019-02-02T02:50:29.094Z,986.8
2019-02-02T02:50:55.222Z,986.73
2019-02-02T02:51:21.305Z,986.81
2019-02-02T02:51:47.405Z,986.77
2019-02-02T02:52:13.509Z,986.79
2019-02-02T02:52:39.740Z,986.76
2019-02-02T02:53:05.847Z,986.78
2019-02-02T02:53:31.946Z,986.79
2019-02-02T02:53:58.069Z,986.78
2019-02-02T02:54:24.174Z,986.77
2019-02-02T02:54:50.287Z,986.75
2019-02-02T02:55:16.389Z,986.75
2019-02-02T02:55:42.496Z,986.76
2019-02-02T02:56:08.602Z,986.73
2019-02-02T02:56:34.709Z,986.71
2019-02-02T02:57:00.843Z,986.74
2019-02-02T02:57:26.952Z,986.76
2019-02-02T02:57:53.122Z,986.72
2019-02-02T02:58:19.205Z,986.75
2019-02-02T02:58:47.197Z,986.78
2019-02-02T02:59:13.355Z,986.75
2019-02-02T02:59:39.461Z,986.71
2019-02-02T03:00:05.603Z,986.69
2019-02-02T03:00:31.749Z,986.75
2019-02-02T03:00:57.848Z,986.73
2019-02-02T03:01:23.989Z,986.74
2019-02-02T03:01:50.121Z,986.73
2019-02-02T03:02:16.236Z,986.7
2019-02-02T03:02:42.337Z,986.68
2019-02-02T03:03:08.498Z,986.7
2019-02-02T03:03:34.616Z,986.68
2019-02-02T03:04:00.762Z,986.66
2019-02-02T03:04:26.891Z,986.64
2019-02-02T03:04:53.036Z,986.66
2019-02-02T03:05:19.189Z,986.66
2019-02-02T03:05:45.287Z,986.66
2019-02-02T03:06:11.402Z,986.64
2019-02-02T03:06:37.505Z,986.69
2019-02-02T03:07:03.605Z,986.66
2019-02-02T03:07:30.046Z,986.65
2019-02-02T03:07:56.213Z,986.69
2019-02-02T03:08:22.346Z,986.69
2019-02-02T03:08:48.448Z,986.69
2019-02-02T03:09:14.561Z,986.69
2019-02-02T03:09:40.697Z,986.68
2019-02-02T03:10:06.857Z,986.7
2019-02-02T03:10:32.992Z,986.72
2019-02-02T03:10:59.092Z,986.67
2019-02-02T03:11:25.194Z,986.67
2019-02-02T03:11:51.299Z,986.67
2019-02-02T03:12:17.403Z,986.7
2019-02-02T03:12:43.511Z,986.69
2019-02-02T03:13:09.650Z,986.68
2019-02-02T03:13:35.803Z,986.7
2019-02-02T03:14:01.913Z,986.7
2019-02-02T03:14:28.036Z,986.7
2019-02-02T03:14:54.175Z,986.73
2019-02-02T03:15:20.326Z,986.73
2019-02-02T03:15:46.456Z,986.76
2019-02-02T03:16:12.558Z,986.72
2019-02-02T03:16:38.658Z,986.78
2019-02-02T03:17:04.791Z,986.77
2019-02-02T03:17:30.930Z,986.83
2019-02-02T03:17:57.031Z,986.83
2019-02-02T03:18:23.141Z,986.84
2019-02-02T03:18:49.300Z,986.8
2019-02-02T03:19:15.396Z,986.81
2019-02-02T03:19:41.502Z,986.85
2019-02-02T03:20:07.638Z,986.82
2019-02-02T03:20:33.738Z,986.83
2019-02-02T03:20:59.849Z,986.84
2019-02-02T03:21:25.955Z,986.78
2019-02-02T03:21:53.045Z,986.81
2019-02-02T03:22:19.185Z,986.77
2019-02-02T03:22:45.292Z,986.78
2019-02-02T03:23:11.426Z,986.81
2019-02-02T03:23:37.560Z,986.81
2019-02-02T03:24:03.693Z,986.78
2019-02-02T03:24:29.887Z,986.84
2019-02-02T03:24:56.092Z,986.86
2019-02-02T03:25:22.197Z,986.83
2019-02-02T03:25:48.298Z,986.85
2019-02-02T03:26:14.399Z,986.84
2019-02-02T03:26:40.529Z,986.84
2019-02-02T03:27:06.637Z,986.84
2019-02-02T03:27:32.749Z,986.84
2019-02-02T03:27:58.957Z,986.81
2019-02-02T03:28:25.066Z,986.85
2019-02-02T03:28:53.812Z,986.8
2019-02-02T03:29:19.926Z,986.82
2019-02-02T03:29:46.029Z,986.84
2019-02-02T03:30:12.248Z,986.84
2019-02-02T03:30:38.343Z,986.82
2019-02-02T03:31:04.477Z,986.83
2019-02-02T03:31:30.754Z,986.87
2019-02-02T03:31:57.826Z,986.88
2019-02-02T03:32:23.996Z,986.86
2019-02-02T03:32:50.291Z,986.85
2019-02-02T03:33:16.389Z,986.9
2019-02-02T03:33:42.547Z,986.92
2019-02-02T03:34:08.689Z,986.88
2019-02-02T03:34:34.785Z,986.94
2019-02-02T03:35:00.926Z,986.9
2019-02-02T03:35:27.028Z,986.89
2019-02-02T03:35:53.129Z,986.93
2019-02-02T03:36:19.293Z,986.9
2019-02-02T03:36:45.395Z,986.84
2019-02-02T03:37:11.500Z,986.89
2019-02-02T03:37:37.603Z,986.89
2019-02-02T03:38:03.715Z,986.93
2019-02-02T03:38:29.813Z,986.9
2019-02-02T03:38:55.921Z,986.89
2019-02-02T03:39:22.063Z,986.88
2019-02-02T03:39:48.172Z,986.94
2019-02-02T03:40:14.295Z,986.94
2019-02-02T03:40:40.510Z,986.91
2019-02-02T03:41:06.670Z,986.94
2019-02-02T03:41:32.770Z,986.96
2019-02-02T03:41:58.880Z,986.97
2019-02-02T03:42:24.993Z,986.95
2019-02-02T03:42:51.086Z,987
2019-02-02T03:43:17.184Z,986.99
2019-02-02T03:43:43.320Z,987
2019-02-02T03:44:09.449Z,986.96
2019-02-02T03:44:35.547Z,986.99
2019-02-02T03:45:01.657Z,986.97
2019-02-02T03:45:27.759Z,986.98
2019-02-02T03:45:54.856Z,987.01
2019-02-02T03:46:20.956Z,987
2019-02-02T03:46:47.059Z,986.99
2019-02-02T03:47:13.163Z,987.03
2019-02-02T03:47:39.292Z,986.99
2019-02-02T03:48:05.403Z,986.99
2019-02-02T03:48:31.500Z,986.99
2019-02-02T03:48:57.648Z,987.01
2019-02-02T03:49:23.797Z,987
2019-02-02T03:49:49.948Z,986.97
2019-02-02T03:50:16.084Z,986.94
2019-02-02T03:50:42.204Z,986.99
2019-02-02T03:51:08.343Z,986.98
2019-02-02T03:51:34.445Z,986.98
2019-02-02T03:52:00.574Z,986.96
2019-02-02T03:52:26.685Z,987.02
2019-02-02T03:52:52.871Z,987.04
2019-02-02T03:53:19.253Z,986.96
2019-02-02T03:53:46.376Z,987
2019-02-02T03:54:14.512Z,987.02
2019-02-02T03:54:40.638Z,987.01
2019-02-02T03:55:06.738Z,987.06
2019-02-02T03:55:32.846Z,987.1
2019-02-02T03:55:58.957Z,987.07
2019-02-02T03:56:25.088Z,987.09
2019-02-02T03:56:51.182Z,987.06
2019-02-02T03:57:17.289Z,987.1
2019-02-02T03:57:43.409Z,987.08
2019-02-02T03:58:09.500Z,987.08
2019-02-02T03:58:35.605Z,987.15
2019-02-02T03:59:06.351Z,987.14
2019-02-02T03:59:29.794Z,987.12
2019-02-02T03:59:55.912Z,987.14
2019-02-02T04:00:22.036Z,987.11
2019-02-02T04:00:48.142Z,987.13
2019-02-02T04:01:14.259Z,987.09
2019-02-02T04:01:40.396Z,987.06
2019-02-02T04:02:06.498Z,987.09
2019-02-02T04:02:32.668Z,987.08
2019-02-02T04:02:58.769Z,987.09
2019-02-02T04:03:24.875Z,987.05
2019-02-02T04:03:51.129Z,987.07
2019-02-02T04:04:17.180Z,987.05
2019-02-02T04:04:43.310Z,987.06
2019-02-02T04:05:09.415Z,987.08
2019-02-02T04:05:35.514Z,987.04
2019-02-02T04:06:01.619Z,987.06
2019-02-02T04:06:27.725Z,987.04
2019-02-02T04:06:53.884Z,987.05
2019-02-02T04:07:20.061Z,987.04
2019-02-02T04:07:46.165Z,987.04
2019-02-02T04:08:12.264Z,987.01
2019-02-02T04:08:38.445Z,987.02
2019-02-02T04:09:04.574Z,987.01
2019-02-02T04:09:30.796Z,987
2019-02-02T04:09:56.874Z,987
2019-02-02T04:10:23.034Z,987.03
2019-02-02T04:10:49.165Z,986.98
2019-02-02T04:11:15.285Z,987.03
2019-02-02T04:11:43.469Z,987
2019-02-02T04:12:08.535Z,987.01
2019-02-02T04:12:34.692Z,986.98
2019-02-02T04:13:00.800Z,986.96
2019-02-02T04:13:26.935Z,987
2019-02-02T04:13:53.073Z,986.98
2019-02-02T04:14:19.212Z,987
2019-02-02T04:14:45.482Z,987.05
2019-02-02T04:15:11.569Z,987.04
2019-02-02T04:15:37.668Z,987
2019-02-02T04:16:03.772Z,987
2019-02-02T04:16:30.015Z,987.01
2019-02-02T04:16:56.066Z,987.01
2019-02-02T04:17:22.172Z,987.01
2019-02-02T04:17:48.298Z,987.01
2019-02-02T04:18:14.407Z,987.03
2019-02-02T04:18:40.515Z,987
2019-02-02T04:19:06.616Z,987
2019-02-02T04:19:32.713Z,986.99
2019-02-02T04:19:58.818Z,987.04
2019-02-02T04:20:24.918Z,987.05
2019-02-02T04:20:51.060Z,987.05
2019-02-02T04:21:17.196Z,987.02
2019-02-02T04:21:43.306Z,986.99
2019-02-02T04:22:09.443Z,987.02
2019-02-02T04:22:35.858Z,987
2019-02-02T04:23:01.987Z,986.99
2019-02-02T04:23:28.095Z,987.01
2019-02-02T04:23:54.195Z,986.98
2019-02-02T04:24:20.301Z,986.98
2019-02-02T04:24:46.414Z,986.98
2019-02-02T04:25:12.511Z,987
2019-02-02T04:25:38.633Z,986.98
2019-02-02T04:26:04.744Z,986.97
2019-02-02T04:26:30.844Z,987
2019-02-02T04:26:56.945Z,987
2019-02-02T04:27:23.058Z,986.95
2019-02-02T04:27:49.178Z,986.98
2019-02-02T04:28:15.355Z,986.98
2019-02-02T04:28:41.545Z,986.99
2019-02-02T04:29:17.473Z,987
2019-02-02T04:29:35.736Z,986.99
2019-02-02T04:30:01.859Z,987
2019-02-02T04:30:28.044Z,986.96
2019-02-02T04:30:54.094Z,986.99
2019-02-02T04:31:20.227Z,987
2019-02-02T04:31:46.374Z,986.98
2019-02-02T04:32:12.549Z,986.97
2019-02-02T04:32:38.650Z,987
2019-02-02T04:33:04.756Z,987.04
2019-02-02T04:33:30.886Z,986.99
2019-02-02T04:33:57.000Z,987.04
2019-02-02T04:34:23.104Z,987.06
2019-02-02T04:34:49.211Z,987.03
2019-02-02T04:35:15.342Z,987.08
2019-02-02T04:35:41.480Z,987.09
2019-02-02T04:36:07.579Z,987.13
2019-02-02T04:36:33.715Z,987.13
2019-02-02T04:36:59.818Z,987.12
2019-02-02T04:37:25.957Z,987.12
2019-02-02T04:37:52.085Z,987.16
2019-02-02T04:38:18.194Z,987.15
2019-02-02T04:38:44.299Z,987.18
2019-02-02T04:39:10.404Z,987.15
2019-02-02T04:39:36.512Z,987.16
2019-02-02T04:40:02.617Z,987.16
2019-02-02T04:40:28.718Z,987.2
2019-02-02T04:40:54.828Z,987.19
2019-02-02T04:41:20.981Z,987.2
2019-02-02T04:41:47.086Z,987.22
2019-02-02T04:42:13.210Z,987.2
2019-02-02T04:42:39.323Z,987.22
2019-02-02T04:43:06.444Z,987.23
2019-02-02T04:43:32.582Z,987.23
2019-02-02T04:43:58.685Z,987.23
2019-02-02T04:44:24.789Z,987.23
2019-02-02T04:44:50.896Z,987.24
2019-02-02T04:45:17.041Z,987.26
2019-02-02T04:45:43.163Z,987.31
2019-02-02T04:46:09.302Z,987.27
2019-02-02T04:46:35.531Z,987.32
2019-02-02T04:47:01.541Z,987.31
2019-02-02T04:47:27.648Z,987.33
2019-02-02T04:47:53.744Z,987.33
2019-02-02T04:48:19.855Z,987.35
2019-02-02T04:48:46.022Z,987.37
2019-02-02T04:49:12.150Z,987.36
2019-02-02T04:49:38.288Z,987.37
2019-02-02T04:50:04.384Z,987.37
2019-02-02T04:50:30.542Z,987.38
2019-02-02T04:50:56.685Z,987.41
2019-02-02T04:51:22.820Z,987.4
2019-02-02T04:51:48.928Z,987.41
2019-02-02T04:52:15.031Z,987.36
2019-02-02T04:52:41.129Z,987.39
2019-02-02T04:53:07.245Z,987.42
2019-02-02T04:53:33.377Z,987.43
2019-02-02T04:53:59.516Z,987.42
2019-02-02T04:54:25.623Z,987.44
2019-02-02T04:54:51.755Z,987.44
2019-02-02T04:55:17.860Z,987.46
2019-02-02T04:55:43.992Z,987.44
2019-02-02T04:56:10.123Z,987.45
2019-02-02T04:56:36.221Z,987.47
2019-02-02T04:57:02.348Z,987.48
2019-02-02T04:57:28.458Z,987.49
2019-02-02T04:57:54.590Z,987.5
2019-02-02T04:58:20.696Z,987.52
2019-02-02T04:58:46.796Z,987.5
2019-02-02T04:59:12.903Z,987.49
2019-02-02T04:59:40.987Z,987.54
2019-02-02T05:00:07.095Z,987.52
2019-02-02T05:00:33.200Z,987.54
2019-02-02T05:00:59.299Z,987.54
2019-02-02T05:01:25.410Z,987.58
2019-02-02T05:01:51.510Z,987.56
2019-02-02T05:02:17.622Z,987.56
2019-02-02T05:02:44.771Z,987.55
2019-02-02T05:03:10.879Z,987.54
2019-02-02T05:03:36.980Z,987.57
2019-02-02T05:04:03.114Z,987.56
2019-02-02T05:04:29.217Z,987.6
2019-02-02T05:04:55.313Z,987.57
2019-02-02T05:05:21.490Z,987.62
2019-02-02T05:05:47.629Z,987.61
2019-02-02T05:06:13.732Z,987.64
2019-02-02T05:06:39.828Z,987.62
2019-02-02T05:07:05.934Z,987.64
2019-02-02T05:07:32.103Z,987.64
2019-02-02T05:07:58.229Z,987.64
2019-02-02T05:08:24.329Z,987.66
2019-02-02T05:08:50.446Z,987.67
2019-02-02T05:09:16.546Z,987.65
2019-02-02T05:09:42.650Z,987.68
2019-02-02T05:10:08.758Z,987.65
2019-02-02T05:10:34.888Z,987.7
2019-02-02T05:11:00.997Z,987.67
2019-02-02T05:11:27.098Z,987.66
2019-02-02T05:11:53.199Z,987.66
2019-02-02T05:12:19.305Z,987.68
2019-02-02T05:12:45.414Z,987.64
2019-02-02T05:13:11.518Z,987.66
2019-02-02T05:13:37.645Z,987.69
2019-02-02T05:14:03.725Z,987.68
2019-02-02T05:14:29.828Z,987.65
2019-02-02T05:14:55.972Z,987.65
2019-02-02T05:15:22.124Z,987.68
2019-02-02T05:15:48.230Z,987.68
2019-02-02T05:16:14.339Z,987.67
2019-02-02T05:16:40.450Z,987.67
2019-02-02T05:17:06.586Z,987.64
2019-02-02T05:17:32.690Z,987.64
2019-02-02T05:17:58.889Z,987.67
2019-02-02T05:18:25.004Z,987.69
2019-02-02T05:18:51.111Z,987.69
2019-02-02T05:19:17.210Z,987.69
2019-02-02T05:19:43.320Z,987.69
2019-02-02T05:20:09.421Z,987.7
2019-02-02T05:20:35.526Z,987.72
2019-02-02T05:21:01.628Z,987.72
2019-02-02T05:21:27.727Z,987.69
2019-02-02T05:21:53.831Z,987.71
2019-02-02T05:22:19.941Z,987.73
2019-02-02T05:22:46.079Z,987.71
2019-02-02T05:23:12.181Z,987.74
2019-02-02T05:23:38.291Z,987.72
2019-02-02T05:24:04.388Z,987.7
2019-02-02T05:24:30.550Z,987.75
2019-02-02T05:24:56.656Z,987.73
2019-02-02T05:25:22.753Z,987.74
2019-02-02T05:25:48.866Z,987.74
2019-02-02T05:26:14.968Z,987.79
2019-02-02T05:26:41.075Z,987.79
2019-02-02T05:27:07.178Z,987.8
2019-02-02T05:27:33.285Z,987.82
2019-02-02T05:27:59.409Z,987.83